sensor_id;sensor_type;location;lat;lon;timestamp;P1;durP1;ratioP1;P2;durP2;ratioP2
73597;SDS011;61874;48.146;11.594;2022-08-01T00:00:38;3.53;;;1.80;;
73597;SDS011;61874;48.146;11.594;2022-08-01T00:03:04;4.03;;;1.77;;
73597;SDS011;61874;48.146;11.594;2022-08-01T00:05:30;5.35;;;1.70;;
73597;SDS011;61874;48.146;11.594;2022-08-01T00:07:56;3.50;;;1.90;;
73597;SDS011;61874;48.146;11.594;2022-08-01T00:10:21;5.25;;;1.83;;
73597;SDS011;61874;48.146;11.594;2022-08-01T00:12:46;3.50;;;1.70;;
73597;SDS011;61874;48.146;11.594;2022-08-01T00:15:14;3.92;;;1.83;;
73597;SDS011;61874;48.146;11.594;2022-08-01T00:17:41;4.32;;;1.80;;
73597;SDS011;61874;48.146;11.594;2022-08-01T00:20:09;8.52;;;2.25;;
73597;SDS011;61874;48.146;11.594;2022-08-01T00:22:36;5.00;;;1.85;;
73597;SDS011;61874;48.146;11.594;2022-08-01T00:25:03;3.58;;;1.75;;
73597;SDS011;61874;48.146;11.594;2022-08-01T00:29:54;3.25;;;1.80;;
73597;SDS011;61874;48.146;11.594;2022-08-01T00:32:19;5.72;;;1.63;;
73597;SDS011;61874;48.146;11.594;2022-08-01T00:34:45;3.28;;;1.80;;
73597;SDS011;61874;48.146;11.594;2022-08-01T00:37:10;6.97;;;1.50;;
73597;SDS011;61874;48.146;11.594;2022-08-01T00:39:36;2.65;;;1.50;;
73597;SDS011;61874;48.146;11.594;2022-08-01T00:42:08;3.83;;;1.65;;
73597;SDS011;61874;48.146;11.594;2022-08-01T00:44:35;5.28;;;1.65;;
73597;SDS011;61874;48.146;11.594;2022-08-01T00:47:01;3.28;;;1.80;;
73597;SDS011;61874;48.146;11.594;2022-08-01T00:49:28;3.03;;;1.50;;
73597;SDS011;61874;48.146;11.594;2022-08-01T00:51:53;5.47;;;1.67;;
73597;SDS011;61874;48.146;11.594;2022-08-01T00:54:19;3.75;;;1.80;;
73597;SDS011;61874;48.146;11.594;2022-08-01T00:56:45;3.78;;;1.70;;
73597;SDS011;61874;48.146;11.594;2022-08-01T00:59:11;3.45;;;1.80;;
73597;SDS011;61874;48.146;11.594;2022-08-01T01:01:37;3.50;;;1.70;;
73597;SDS011;61874;48.146;11.594;2022-08-01T01:04:02;3.78;;;1.60;;
73597;SDS011;61874;48.146;11.594;2022-08-01T01:14:38;3.65;;;1.50;;
73597;SDS011;61874;48.146;11.594;2022-08-01T01:17:11;3.58;;;1.92;;
73597;SDS011;61874;48.146;11.594;2022-08-01T01:19:41;4.82;;;2.00;;
73597;SDS011;61874;48.146;11.594;2022-08-01T01:22:17;3.95;;;1.80;;
73597;SDS011;61874;48.146;11.594;2022-08-01T01:27:22;2.83;;;1.50;;
73597;SDS011;61874;48.146;11.594;2022-08-01T01:29:55;3.45;;;1.55;;
73597;SDS011;61874;48.146;11.594;2022-08-01T01:32:41;4.07;;;1.63;;
73597;SDS011;61874;48.146;11.594;2022-08-01T01:35:10;3.88;;;1.63;;
73597;SDS011;61874;48.146;11.594;2022-08-01T01:37:42;3.08;;;1.73;;
73597;SDS011;61874;48.146;11.594;2022-08-01T01:40:12;3.72;;;1.75;;
73597;SDS011;61874;48.146;11.594;2022-08-01T01:45:06;3.92;;;1.58;;
73597;SDS011;61874;48.146;11.594;2022-08-01T01:47:33;3.53;;;2.05;;
73597;SDS011;61874;48.146;11.594;2022-08-01T01:50:00;3.17;;;1.48;;
73597;SDS011;61874;48.146;11.594;2022-08-01T01:52:28;3.90;;;1.50;;
73597;SDS011;61874;48.146;11.594;2022-08-01T01:54:56;5.90;;;1.60;;
73597;SDS011;61874;48.146;11.594;2022-08-01T01:57:23;4.00;;;1.58;;
73597;SDS011;61874;48.146;11.594;2022-08-01T01:59:50;3.42;;;1.40;;
73597;SDS011;61874;48.146;11.594;2022-08-01T02:02:17;4.32;;;1.80;;
73597;SDS011;61874;48.146;11.594;2022-08-01T02:04:45;5.22;;;1.48;;
73597;SDS011;61874;48.146;11.594;2022-08-01T02:07:12;5.28;;;1.75;;
73597;SDS011;61874;48.146;11.594;2022-08-01T02:09:41;3.65;;;1.50;;
73597;SDS011;61874;48.146;11.594;2022-08-01T02:12:11;4.55;;;1.80;;
73597;SDS011;61874;48.146;11.594;2022-08-01T02:14:38;4.32;;;1.77;;
73597;SDS011;61874;48.146;11.594;2022-08-01T02:17:08;6.78;;;1.55;;
73597;SDS011;61874;48.146;11.594;2022-08-01T02:19:36;3.08;;;1.42;;
73597;SDS011;61874;48.146;11.594;2022-08-01T02:22:13;2.65;;;1.40;;
73597;SDS011;61874;48.146;11.594;2022-08-01T02:25:06;3.72;;;1.70;;
73597;SDS011;61874;48.146;11.594;2022-08-01T02:27:59;3.67;;;1.70;;
73597;SDS011;61874;48.146;11.594;2022-08-01T02:30:32;2.60;;;1.40;;
73597;SDS011;61874;48.146;11.594;2022-08-01T02:33:15;3.55;;;1.35;;
73597;SDS011;61874;48.146;11.594;2022-08-01T02:35:44;4.20;;;1.67;;
73597;SDS011;61874;48.146;11.594;2022-08-01T02:38:15;3.10;;;1.45;;
73597;SDS011;61874;48.146;11.594;2022-08-01T02:40:45;3.45;;;1.80;;
73597;SDS011;61874;48.146;11.594;2022-08-01T02:43:12;4.28;;;1.70;;
73597;SDS011;61874;48.146;11.594;2022-08-01T02:45:42;4.75;;;1.70;;
73597;SDS011;61874;48.146;11.594;2022-08-01T02:48:11;5.90;;;1.70;;
73597;SDS011;61874;48.146;11.594;2022-08-01T02:50:38;4.03;;;1.90;;
73597;SDS011;61874;48.146;11.594;2022-08-01T02:53:07;3.60;;;1.70;;
73597;SDS011;61874;48.146;11.594;2022-08-01T02:55:35;3.47;;;1.73;;
73597;SDS011;61874;48.146;11.594;2022-08-01T02:58:03;4.47;;;1.50;;
73597;SDS011;61874;48.146;11.594;2022-08-01T03:00:30;2.85;;;1.55;;
73597;SDS011;61874;48.146;11.594;2022-08-01T03:02:58;2.85;;;1.60;;
73597;SDS011;61874;48.146;11.594;2022-08-01T03:05:25;3.65;;;1.65;;
73597;SDS011;61874;48.146;11.594;2022-08-01T03:07:52;4.28;;;1.50;;
73597;SDS011;61874;48.146;11.594;2022-08-01T03:10:20;4.85;;;1.75;;
73597;SDS011;61874;48.146;11.594;2022-08-01T03:12:47;2.97;;;1.38;;
73597;SDS011;61874;48.146;11.594;2022-08-01T03:15:15;4.50;;;1.77;;
73597;SDS011;61874;48.146;11.594;2022-08-01T03:17:42;3.15;;;1.52;;
73597;SDS011;61874;48.146;11.594;2022-08-01T03:20:11;3.20;;;1.63;;
73597;SDS011;61874;48.146;11.594;2022-08-01T03:22:39;3.47;;;1.70;;
73597;SDS011;61874;48.146;11.594;2022-08-01T03:25:07;2.92;;;1.60;;
73597;SDS011;61874;48.146;11.594;2022-08-01T03:27:34;2.60;;;1.58;;
73597;SDS011;61874;48.146;11.594;2022-08-01T03:30:02;2.88;;;1.60;;
73597;SDS011;61874;48.146;11.594;2022-08-01T03:32:30;6.05;;;2.20;;
73597;SDS011;61874;48.146;11.594;2022-08-01T03:34:56;4.75;;;1.60;;
73597;SDS011;61874;48.146;11.594;2022-08-01T03:37:55;3.03;;;1.73;;
73597;SDS011;61874;48.146;11.594;2022-08-01T03:42:43;5.97;;;2.08;;
73597;SDS011;61874;48.146;11.594;2022-08-01T03:45:15;3.00;;;1.50;;
73597;SDS011;61874;48.146;11.594;2022-08-01T03:47:47;3.17;;;1.60;;
73597;SDS011;61874;48.146;11.594;2022-08-01T03:50:18;4.85;;;1.65;;
73597;SDS011;61874;48.146;11.594;2022-08-01T03:52:46;6.22;;;1.75;;
73597;SDS011;61874;48.146;11.594;2022-08-01T03:55:12;3.22;;;1.70;;
73597;SDS011;61874;48.146;11.594;2022-08-01T03:57:40;4.35;;;1.65;;
73597;SDS011;61874;48.146;11.594;2022-08-01T04:00:06;2.97;;;1.60;;
73597;SDS011;61874;48.146;11.594;2022-08-01T04:02:33;2.70;;;1.50;;
73597;SDS011;61874;48.146;11.594;2022-08-01T04:05:00;7.15;;;1.77;;
73597;SDS011;61874;48.146;11.594;2022-08-01T04:07:27;5.32;;;1.70;;
73597;SDS011;61874;48.146;11.594;2022-08-01T04:09:54;3.03;;;1.70;;
73597;SDS011;61874;48.146;11.594;2022-08-01T04:12:20;3.30;;;1.75;;
73597;SDS011;61874;48.146;11.594;2022-08-01T04:14:46;4.32;;;2.15;;
73597;SDS011;61874;48.146;11.594;2022-08-01T04:17:12;4.57;;;1.55;;
73597;SDS011;61874;48.146;11.594;2022-08-01T04:19:38;3.13;;;1.70;;
73597;SDS011;61874;48.146;11.594;2022-08-01T04:22:04;4.55;;;1.90;;
73597;SDS011;61874;48.146;11.594;2022-08-01T04:24:30;3.38;;;1.90;;
73597;SDS011;61874;48.146;11.594;2022-08-01T04:26:59;5.10;;;1.58;;
73597;SDS011;61874;48.146;11.594;2022-08-01T04:29:26;7.05;;;1.90;;
73597;SDS011;61874;48.146;11.594;2022-08-01T04:31:55;6.35;;;1.98;;
73597;SDS011;61874;48.146;11.594;2022-08-01T04:34:23;3.83;;;1.52;;
73597;SDS011;61874;48.146;11.594;2022-08-01T04:36:52;3.78;;;1.73;;
73597;SDS011;61874;48.146;11.594;2022-08-01T04:39:20;5.13;;;1.80;;
73597;SDS011;61874;48.146;11.594;2022-08-01T04:41:48;5.82;;;1.85;;
73597;SDS011;61874;48.146;11.594;2022-08-01T04:44:15;3.70;;;1.95;;
73597;SDS011;61874;48.146;11.594;2022-08-01T04:46:41;6.65;;;2.00;;
73597;SDS011;61874;48.146;11.594;2022-08-01T04:49:08;3.65;;;1.70;;
73597;SDS011;61874;48.146;11.594;2022-08-01T04:51:36;4.85;;;1.80;;
73597;SDS011;61874;48.146;11.594;2022-08-01T04:54:14;3.85;;;1.58;;
73597;SDS011;61874;48.146;11.594;2022-08-01T04:56:39;5.43;;;2.05;;
73597;SDS011;61874;48.146;11.594;2022-08-01T04:59:05;2.75;;;1.58;;
73597;SDS011;61874;48.146;11.594;2022-08-01T05:01:49;3.72;;;1.80;;
73597;SDS011;61874;48.146;11.594;2022-08-01T05:04:15;4.95;;;1.73;;
73597;SDS011;61874;48.146;11.594;2022-08-01T05:06:40;6.38;;;1.80;;
73597;SDS011;61874;48.146;11.594;2022-08-01T05:09:06;4.00;;;1.73;;
73597;SDS011;61874;48.146;11.594;2022-08-01T05:11:31;5.00;;;2.00;;
73597;SDS011;61874;48.146;11.594;2022-08-01T05:13:57;6.68;;;1.70;;
73597;SDS011;61874;48.146;11.594;2022-08-01T05:16:22;9.07;;;1.90;;
73597;SDS011;61874;48.146;11.594;2022-08-01T05:18:47;5.43;;;1.80;;
73597;SDS011;61874;48.146;11.594;2022-08-01T05:21:13;14.80;;;1.90;;
73597;SDS011;61874;48.146;11.594;2022-08-01T05:23:38;6.75;;;2.53;;
73597;SDS011;61874;48.146;11.594;2022-08-01T05:26:03;4.10;;;1.77;;
73597;SDS011;61874;48.146;11.594;2022-08-01T05:28:29;5.35;;;1.60;;
73597;SDS011;61874;48.146;11.594;2022-08-01T05:30:55;5.18;;;2.35;;
73597;SDS011;61874;48.146;11.594;2022-08-01T05:33:21;3.60;;;1.55;;
73597;SDS011;61874;48.146;11.594;2022-08-01T05:35:47;5.50;;;1.85;;
73597;SDS011;61874;48.146;11.594;2022-08-01T05:38:13;6.05;;;2.00;;
73597;SDS011;61874;48.146;11.594;2022-08-01T05:40:38;4.65;;;1.50;;
73597;SDS011;61874;48.146;11.594;2022-08-01T05:43:04;5.43;;;1.52;;
73597;SDS011;61874;48.146;11.594;2022-08-01T05:45:29;11.27;;;2.08;;
73597;SDS011;61874;48.146;11.594;2022-08-01T05:47:54;8.07;;;1.70;;
73597;SDS011;61874;48.146;11.594;2022-08-01T05:50:20;7.43;;;1.88;;
73597;SDS011;61874;48.146;11.594;2022-08-01T05:52:45;10.18;;;1.63;;
73597;SDS011;61874;48.146;11.594;2022-08-01T05:55:10;5.95;;;1.88;;
73597;SDS011;61874;48.146;11.594;2022-08-01T05:57:36;8.48;;;1.90;;
73597;SDS011;61874;48.146;11.594;2022-08-01T06:00:01;5.78;;;1.90;;
73597;SDS011;61874;48.146;11.594;2022-08-01T06:02:27;5.50;;;1.88;;
73597;SDS011;61874;48.146;11.594;2022-08-01T06:04:52;4.22;;;1.77;;
73597;SDS011;61874;48.146;11.594;2022-08-01T06:07:18;7.25;;;1.90;;
73597;SDS011;61874;48.146;11.594;2022-08-01T06:09:43;8.23;;;1.90;;
73597;SDS011;61874;48.146;11.594;2022-08-01T06:12:09;11.57;;;1.83;;
73597;SDS011;61874;48.146;11.594;2022-08-01T06:14:34;4.75;;;1.80;;
73597;SDS011;61874;48.146;11.594;2022-08-01T06:16:59;4.35;;;1.63;;
73597;SDS011;61874;48.146;11.594;2022-08-01T06:19:25;9.02;;;2.00;;
73597;SDS011;61874;48.146;11.594;2022-08-01T06:21:51;6.80;;;2.00;;
73597;SDS011;61874;48.146;11.594;2022-08-01T06:24:16;7.15;;;2.25;;
73597;SDS011;61874;48.146;11.594;2022-08-01T06:26:42;6.80;;;1.95;;
73597;SDS011;61874;48.146;11.594;2022-08-01T06:29:07;5.43;;;1.60;;
73597;SDS011;61874;48.146;11.594;2022-08-01T06:31:32;7.18;;;1.90;;
73597;SDS011;61874;48.146;11.594;2022-08-01T06:33:58;6.38;;;1.70;;
73597;SDS011;61874;48.146;11.594;2022-08-01T06:36:23;9.90;;;2.30;;
73597;SDS011;61874;48.146;11.594;2022-08-01T06:38:50;11.43;;;2.15;;
73597;SDS011;61874;48.146;11.594;2022-08-01T06:41:16;4.82;;;2.13;;
73597;SDS011;61874;48.146;11.594;2022-08-01T06:43:41;7.43;;;1.85;;
73597;SDS011;61874;48.146;11.594;2022-08-01T06:46:06;20.90;;;2.90;;
73597;SDS011;61874;48.146;11.594;2022-08-01T06:48:32;10.52;;;2.42;;
73597;SDS011;61874;48.146;11.594;2022-08-01T06:50:57;5.85;;;1.77;;
73597;SDS011;61874;48.146;11.594;2022-08-01T06:53:38;3.63;;;1.80;;
73597;SDS011;61874;48.146;11.594;2022-08-01T06:56:04;14.50;;;2.00;;
73597;SDS011;61874;48.146;11.594;2022-08-01T06:58:32;8.25;;;1.90;;
73597;SDS011;61874;48.146;11.594;2022-08-01T07:01:03;8.50;;;2.47;;
73597;SDS011;61874;48.146;11.594;2022-08-01T07:03:33;5.35;;;2.00;;
73597;SDS011;61874;48.146;11.594;2022-08-01T07:05:59;8.00;;;1.73;;
73597;SDS011;61874;48.146;11.594;2022-08-01T07:08:24;4.68;;;1.95;;
73597;SDS011;61874;48.146;11.594;2022-08-01T07:10:50;6.78;;;2.88;;
73597;SDS011;61874;48.146;11.594;2022-08-01T07:13:15;4.38;;;2.22;;
73597;SDS011;61874;48.146;11.594;2022-08-01T07:15:45;5.25;;;1.73;;
73597;SDS011;61874;48.146;11.594;2022-08-01T07:18:11;4.10;;;1.80;;
73597;SDS011;61874;48.146;11.594;2022-08-01T07:20:37;4.32;;;1.83;;
73597;SDS011;61874;48.146;11.594;2022-08-01T07:23:03;4.22;;;1.77;;
73597;SDS011;61874;48.146;11.594;2022-08-01T07:25:28;4.35;;;1.90;;
73597;SDS011;61874;48.146;11.594;2022-08-01T07:27:53;7.20;;;2.40;;
73597;SDS011;61874;48.146;11.594;2022-08-01T07:30:19;5.22;;;1.77;;
73597;SDS011;61874;48.146;11.594;2022-08-01T07:32:44;8.75;;;2.10;;
73597;SDS011;61874;48.146;11.594;2022-08-01T07:35:10;4.38;;;1.80;;
73597;SDS011;61874;48.146;11.594;2022-08-01T07:37:35;7.35;;;2.30;;
73597;SDS011;61874;48.146;11.594;2022-08-01T07:40:01;4.30;;;1.98;;
73597;SDS011;61874;48.146;11.594;2022-08-01T07:42:29;5.97;;;2.13;;
73597;SDS011;61874;48.146;11.594;2022-08-01T07:44:54;4.18;;;2.00;;
73597;SDS011;61874;48.146;11.594;2022-08-01T07:47:24;6.88;;;2.17;;
73597;SDS011;61874;48.146;11.594;2022-08-01T07:49:50;3.67;;;2.10;;
73597;SDS011;61874;48.146;11.594;2022-08-01T07:52:16;6.63;;;2.17;;
73597;SDS011;61874;48.146;11.594;2022-08-01T07:54:41;3.85;;;2.00;;
73597;SDS011;61874;48.146;11.594;2022-08-01T07:57:07;4.10;;;2.05;;
73597;SDS011;61874;48.146;11.594;2022-08-01T07:59:32;4.72;;;1.98;;
73597;SDS011;61874;48.146;11.594;2022-08-01T08:01:58;6.95;;;2.42;;
73597;SDS011;61874;48.146;11.594;2022-08-01T08:04:23;5.10;;;2.15;;
73597;SDS011;61874;48.146;11.594;2022-08-01T08:06:49;7.43;;;2.13;;
73597;SDS011;61874;48.146;11.594;2022-08-01T08:09:15;5.68;;;1.90;;
73597;SDS011;61874;48.146;11.594;2022-08-01T08:11:44;3.42;;;2.00;;
73597;SDS011;61874;48.146;11.594;2022-08-01T08:14:26;5.75;;;2.20;;
73597;SDS011;61874;48.146;11.594;2022-08-01T08:16:54;8.43;;;1.90;;
73597;SDS011;61874;48.146;11.594;2022-08-01T08:19:20;5.53;;;2.00;;
73597;SDS011;61874;48.146;11.594;2022-08-01T08:21:45;3.70;;;2.00;;
73597;SDS011;61874;48.146;11.594;2022-08-01T08:24:10;5.05;;;1.98;;
73597;SDS011;61874;48.146;11.594;2022-08-01T08:26:45;7.13;;;1.90;;
73597;SDS011;61874;48.146;11.594;2022-08-01T08:29:21;3.75;;;1.75;;
73597;SDS011;61874;48.146;11.594;2022-08-01T08:31:47;4.65;;;1.88;;
73597;SDS011;61874;48.146;11.594;2022-08-01T08:34:14;9.10;;;1.98;;
73597;SDS011;61874;48.146;11.594;2022-08-01T08:36:39;5.90;;;2.13;;
73597;SDS011;61874;48.146;11.594;2022-08-01T08:39:05;4.82;;;2.30;;
73597;SDS011;61874;48.146;11.594;2022-08-01T08:41:34;3.70;;;1.80;;
73597;SDS011;61874;48.146;11.594;2022-08-01T08:44:03;8.00;;;2.35;;
73597;SDS011;61874;48.146;11.594;2022-08-01T08:46:30;4.75;;;1.80;;
73597;SDS011;61874;48.146;11.594;2022-08-01T08:48:58;3.75;;;1.77;;
73597;SDS011;61874;48.146;11.594;2022-08-01T08:51:26;5.85;;;2.05;;
73597;SDS011;61874;48.146;11.594;2022-08-01T08:53:56;6.93;;;2.00;;
73597;SDS011;61874;48.146;11.594;2022-08-01T08:56:25;7.65;;;1.77;;
73597;SDS011;61874;48.146;11.594;2022-08-01T08:58:55;7.22;;;1.80;;
73597;SDS011;61874;48.146;11.594;2022-08-01T09:01:20;5.13;;;1.73;;
73597;SDS011;61874;48.146;11.594;2022-08-01T09:03:46;5.20;;;1.85;;
73597;SDS011;61874;48.146;11.594;2022-08-01T09:06:12;8.57;;;1.95;;
73597;SDS011;61874;48.146;11.594;2022-08-01T09:08:39;8.50;;;2.40;;
73597;SDS011;61874;48.146;11.594;2022-08-01T09:11:04;4.90;;;1.73;;
73597;SDS011;61874;48.146;11.594;2022-08-01T09:13:30;4.03;;;1.65;;
73597;SDS011;61874;48.146;11.594;2022-08-01T09:15:55;3.88;;;1.80;;
73597;SDS011;61874;48.146;11.594;2022-08-01T09:18:37;5.68;;;1.70;;
73597;SDS011;61874;48.146;11.594;2022-08-01T09:26:07;5.60;;;1.73;;
73597;SDS011;61874;48.146;11.594;2022-08-01T09:28:33;11.93;;;2.00;;
73597;SDS011;61874;48.146;11.594;2022-08-01T09:30:59;7.40;;;1.63;;
73597;SDS011;61874;48.146;11.594;2022-08-01T09:33:50;6.25;;;1.88;;
73597;SDS011;61874;48.146;11.594;2022-08-01T09:36:17;3.08;;;1.67;;
73597;SDS011;61874;48.146;11.594;2022-08-01T09:38:43;4.53;;;1.52;;
73597;SDS011;61874;48.146;11.594;2022-08-01T09:41:08;3.80;;;1.55;;
73597;SDS011;61874;48.146;11.594;2022-08-01T09:43:36;3.38;;;1.80;;
73597;SDS011;61874;48.146;11.594;2022-08-01T09:46:20;4.22;;;1.70;;
73597;SDS011;61874;48.146;11.594;2022-08-01T09:48:55;7.47;;;1.63;;
73597;SDS011;61874;48.146;11.594;2022-08-01T09:51:33;6.57;;;1.77;;
73597;SDS011;61874;48.146;11.594;2022-08-01T09:54:00;4.70;;;1.63;;
73597;SDS011;61874;48.146;11.594;2022-08-01T09:56:35;10.10;;;1.67;;
73597;SDS011;61874;48.146;11.594;2022-08-01T09:59:02;4.53;;;1.63;;
73597;SDS011;61874;48.146;11.594;2022-08-01T10:01:40;3.25;;;1.60;;
73597;SDS011;61874;48.146;11.594;2022-08-01T10:06:33;4.60;;;1.45;;
73597;SDS011;61874;48.146;11.594;2022-08-01T10:08:59;2.85;;;1.40;;
73597;SDS011;61874;48.146;11.594;2022-08-01T10:11:24;3.45;;;1.55;;
73597;SDS011;61874;48.146;11.594;2022-08-01T10:13:50;3.33;;;1.55;;
73597;SDS011;61874;48.146;11.594;2022-08-01T10:16:17;3.35;;;1.45;;
73597;SDS011;61874;48.146;11.594;2022-08-01T10:18:43;5.70;;;1.80;;
73597;SDS011;61874;48.146;11.594;2022-08-01T10:21:10;3.20;;;1.50;;
73597;SDS011;61874;48.146;11.594;2022-08-01T10:23:37;3.35;;;1.40;;
73597;SDS011;61874;48.146;11.594;2022-08-01T10:26:03;6.03;;;1.45;;
73597;SDS011;61874;48.146;11.594;2022-08-01T10:28:30;7.68;;;1.55;;
73597;SDS011;61874;48.146;11.594;2022-08-01T10:30:59;7.60;;;1.55;;
73597;SDS011;61874;48.146;11.594;2022-08-01T10:33:26;5.63;;;1.75;;
73597;SDS011;61874;48.146;11.594;2022-08-01T10:35:54;7.20;;;1.60;;
73597;SDS011;61874;48.146;11.594;2022-08-01T10:38:20;3.95;;;1.60;;
73597;SDS011;61874;48.146;11.594;2022-08-01T10:40:45;3.78;;;1.45;;
73597;SDS011;61874;48.146;11.594;2022-08-01T10:43:11;5.43;;;1.50;;
73597;SDS011;61874;48.146;11.594;2022-08-01T10:45:38;5.38;;;1.80;;
73597;SDS011;61874;48.146;11.594;2022-08-01T10:48:12;3.85;;;1.60;;
73597;SDS011;61874;48.146;11.594;2022-08-01T10:50:47;2.70;;;1.33;;
73597;SDS011;61874;48.146;11.594;2022-08-01T10:53:15;4.43;;;1.50;;
73597;SDS011;61874;48.146;11.594;2022-08-01T10:58:10;4.82;;;1.45;;
73597;SDS011;61874;48.146;11.594;2022-08-01T11:00:36;2.55;;;1.20;;
73597;SDS011;61874;48.146;11.594;2022-08-01T11:03:02;3.97;;;1.38;;
73597;SDS011;61874;48.146;11.594;2022-08-01T11:05:34;4.40;;;1.30;;
73597;SDS011;61874;48.146;11.594;2022-08-01T11:08:01;3.63;;;1.35;;
73597;SDS011;61874;48.146;11.594;2022-08-01T11:10:38;7.65;;;1.58;;
73597;SDS011;61874;48.146;11.594;2022-08-01T11:13:05;4.78;;;1.30;;
73597;SDS011;61874;48.146;11.594;2022-08-01T11:15:36;4.53;;;1.50;;
73597;SDS011;61874;48.146;11.594;2022-08-01T11:20:59;3.30;;;1.30;;
73597;SDS011;61874;48.146;11.594;2022-08-01T11:23:26;5.57;;;1.17;;
73597;SDS011;61874;48.146;11.594;2022-08-01T11:28:20;3.50;;;1.40;;
73597;SDS011;61874;48.146;11.594;2022-08-01T11:30:50;3.38;;;1.33;;
73597;SDS011;61874;48.146;11.594;2022-08-01T11:38:39;5.88;;;1.30;;
73597;SDS011;61874;48.146;11.594;2022-08-01T11:41:15;3.15;;;1.25;;
73597;SDS011;61874;48.146;11.594;2022-08-01T11:43:54;7.85;;;1.50;;
73597;SDS011;61874;48.146;11.594;2022-08-01T11:52:08;4.72;;;1.40;;
73597;SDS011;61874;48.146;11.594;2022-08-01T11:54:42;6.10;;;1.50;;
73597;SDS011;61874;48.146;11.594;2022-08-01T11:57:11;3.75;;;1.40;;
73597;SDS011;61874;48.146;11.594;2022-08-01T11:59:45;2.58;;;1.40;;
73597;SDS011;61874;48.146;11.594;2022-08-01T12:02:15;2.63;;;1.30;;
73597;SDS011;61874;48.146;11.594;2022-08-01T12:04:48;3.42;;;1.40;;
73597;SDS011;61874;48.146;11.594;2022-08-01T12:07:19;4.47;;;1.17;;
73597;SDS011;61874;48.146;11.594;2022-08-01T12:09:44;4.75;;;1.20;;
73597;SDS011;61874;48.146;11.594;2022-08-01T12:12:11;3.72;;;1.17;;
73597;SDS011;61874;48.146;11.594;2022-08-01T12:14:42;8.65;;;1.30;;
73597;SDS011;61874;48.146;11.594;2022-08-01T12:17:07;3.22;;;1.17;;
73597;SDS011;61874;48.146;11.594;2022-08-01T12:19:33;3.75;;;1.08;;
73597;SDS011;61874;48.146;11.594;2022-08-01T12:22:05;6.03;;;1.17;;
73597;SDS011;61874;48.146;11.594;2022-08-01T12:24:34;6.15;;;1.00;;
73597;SDS011;61874;48.146;11.594;2022-08-01T12:27:00;6.95;;;1.13;;
73597;SDS011;61874;48.146;11.594;2022-08-01T12:29:36;2.70;;;1.23;;
73597;SDS011;61874;48.146;11.594;2022-08-01T12:34:49;7.05;;;1.55;;
73597;SDS011;61874;48.146;11.594;2022-08-01T12:37:15;3.00;;;1.10;;
73597;SDS011;61874;48.146;11.594;2022-08-01T12:39:41;3.28;;;0.95;;
73597;SDS011;61874;48.146;11.594;2022-08-01T12:42:07;14.88;;;1.45;;
73597;SDS011;61874;48.146;11.594;2022-08-01T12:44:35;2.42;;;1.00;;
73597;SDS011;61874;48.146;11.594;2022-08-01T12:47:01;4.97;;;1.10;;
73597;SDS011;61874;48.146;11.594;2022-08-01T12:49:29;5.45;;;1.00;;
73597;SDS011;61874;48.146;11.594;2022-08-01T12:51:54;4.45;;;1.08;;
73597;SDS011;61874;48.146;11.594;2022-08-01T12:54:21;7.25;;;1.10;;
73597;SDS011;61874;48.146;11.594;2022-08-01T12:56:47;4.97;;;1.13;;
73597;SDS011;61874;48.146;11.594;2022-08-01T12:59:19;8.15;;;1.08;;
73597;SDS011;61874;48.146;11.594;2022-08-01T13:01:56;3.70;;;0.85;;
73597;SDS011;61874;48.146;11.594;2022-08-01T13:04:33;5.68;;;1.30;;
73597;SDS011;61874;48.146;11.594;2022-08-01T13:07:15;5.00;;;1.02;;
73597;SDS011;61874;48.146;11.594;2022-08-01T13:09:50;5.00;;;1.40;;
73597;SDS011;61874;48.146;11.594;2022-08-01T13:12:16;7.15;;;1.00;;
73597;SDS011;61874;48.146;11.594;2022-08-01T13:14:41;7.55;;;1.40;;
73597;SDS011;61874;48.146;11.594;2022-08-01T13:17:07;7.45;;;1.30;;
73597;SDS011;61874;48.146;11.594;2022-08-01T13:19:45;3.17;;;1.33;;
73597;SDS011;61874;48.146;11.594;2022-08-01T13:22:12;5.80;;;1.20;;
73597;SDS011;61874;48.146;11.594;2022-08-01T13:24:37;14.55;;;1.50;;
73597;SDS011;61874;48.146;11.594;2022-08-01T13:27:03;18.27;;;2.25;;
73597;SDS011;61874;48.146;11.594;2022-08-01T13:29:39;20.35;;;1.52;;
73597;SDS011;61874;48.146;11.594;2022-08-01T13:32:14;8.00;;;1.48;;
73597;SDS011;61874;48.146;11.594;2022-08-01T13:34:41;5.13;;;1.13;;
73597;SDS011;61874;48.146;11.594;2022-08-01T13:37:06;4.75;;;1.10;;
73597;SDS011;61874;48.146;11.594;2022-08-01T13:39:32;5.65;;;2.28;;
73597;SDS011;61874;48.146;11.594;2022-08-01T13:42:12;3.60;;;1.00;;
73597;SDS011;61874;48.146;11.594;2022-08-01T13:44:39;3.85;;;1.00;;
73597;SDS011;61874;48.146;11.594;2022-08-01T13:47:05;5.07;;;1.20;;
73597;SDS011;61874;48.146;11.594;2022-08-01T13:49:31;4.43;;;1.10;;
73597;SDS011;61874;48.146;11.594;2022-08-01T13:51:57;3.15;;;1.08;;
73597;SDS011;61874;48.146;11.594;2022-08-01T13:54:23;2.97;;;1.25;;
73597;SDS011;61874;48.146;11.594;2022-08-01T13:56:49;4.18;;;0.98;;
73597;SDS011;61874;48.146;11.594;2022-08-01T13:59:15;3.08;;;1.02;;
73597;SDS011;61874;48.146;11.594;2022-08-01T14:01:41;1.70;;;0.90;;
73597;SDS011;61874;48.146;11.594;2022-08-01T14:04:06;3.63;;;0.80;;
73597;SDS011;61874;48.146;11.594;2022-08-01T14:06:32;6.68;;;1.00;;
73597;SDS011;61874;48.146;11.594;2022-08-01T14:08:57;1.88;;;0.88;;
73597;SDS011;61874;48.146;11.594;2022-08-01T14:11:23;3.67;;;1.00;;
73597;SDS011;61874;48.146;11.594;2022-08-01T14:13:48;3.90;;;0.90;;
73597;SDS011;61874;48.146;11.594;2022-08-01T14:16:14;7.88;;;1.45;;
73597;SDS011;61874;48.146;11.594;2022-08-01T14:18:39;8.30;;;1.20;;
73597;SDS011;61874;48.146;11.594;2022-08-01T14:21:05;8.65;;;1.10;;
73597;SDS011;61874;48.146;11.594;2022-08-01T14:23:31;31.02;;;2.13;;
73597;SDS011;61874;48.146;11.594;2022-08-01T14:25:56;13.57;;;2.20;;
73597;SDS011;61874;48.146;11.594;2022-08-01T14:28:22;6.20;;;1.00;;
73597;SDS011;61874;48.146;11.594;2022-08-01T14:30:49;5.63;;;1.00;;
73597;SDS011;61874;48.146;11.594;2022-08-01T14:33:14;3.85;;;1.00;;
73597;SDS011;61874;48.146;11.594;2022-08-01T14:35:40;10.20;;;0.90;;
73597;SDS011;61874;48.146;11.594;2022-08-01T14:38:06;5.07;;;0.80;;
73597;SDS011;61874;48.146;11.594;2022-08-01T14:40:32;3.88;;;0.75;;
73597;SDS011;61874;48.146;11.594;2022-08-01T14:42:58;4.25;;;2.30;;
73597;SDS011;61874;48.146;11.594;2022-08-01T14:45:26;8.65;;;1.13;;
73597;SDS011;61874;48.146;11.594;2022-08-01T14:47:52;4.80;;;1.20;;
73597;SDS011;61874;48.146;11.594;2022-08-01T14:50:17;5.80;;;1.50;;
73597;SDS011;61874;48.146;11.594;2022-08-01T14:52:43;3.40;;;1.10;;
73597;SDS011;61874;48.146;11.594;2022-08-01T14:55:09;8.18;;;1.45;;
73597;SDS011;61874;48.146;11.594;2022-08-01T15:00:03;7.05;;;1.25;;
73597;SDS011;61874;48.146;11.594;2022-08-01T15:02:31;16.60;;;1.45;;
73597;SDS011;61874;48.146;11.594;2022-08-01T15:04:56;14.60;;;1.60;;
73597;SDS011;61874;48.146;11.594;2022-08-01T15:07:22;11.65;;;1.73;;
73597;SDS011;61874;48.146;11.594;2022-08-01T15:09:47;12.63;;;1.73;;
73597;SDS011;61874;48.146;11.594;2022-08-01T15:12:13;8.57;;;1.70;;
73597;SDS011;61874;48.146;11.594;2022-08-01T15:14:38;3.10;;;1.27;;
73597;SDS011;61874;48.146;11.594;2022-08-01T15:17:20;8.80;;;1.63;;
73597;SDS011;61874;48.146;11.594;2022-08-01T15:19:51;5.43;;;1.58;;
73597;SDS011;61874;48.146;11.594;2022-08-01T15:22:19;6.20;;;1.42;;
73597;SDS011;61874;48.146;11.594;2022-08-01T15:24:46;5.90;;;1.48;;
73597;SDS011;61874;48.146;11.594;2022-08-01T15:27:12;5.53;;;1.30;;